Bloomville, Ohio
Current Conditions -  °F | °C
As of 10:51 PM on Saturday 24 Jan 2015 (Local Time) from KMNN Reporting Station
Haze Haze  
Wind Chill: 29°   Ceiling: 1700
Heat Index: 36°   Visibility: 4mi
Dew Point: 30°   Wind: 8mph
Humidity: 81%   Direction: 240°WSW
Pressure: 29.73"   Gusts: NA
Location:  41.05°N, 83.01°W
Report Text: KMNN 250351Z AUTO 24007KT 4SM HZ BKN017 OVC029 02/M01 A2973 RMK AO2 TSNO
Loading
Personal Weather Stations






























Interactive Weather Map New forecast layout! Learn more

10-Day Weather Forecast

Advertisements
Track Severe Weather on mobile